首页
METAR-TAF:

METAR-TAF

机场 :

Sheridan County Airport

Sheridan, 怀俄明州, 美国

纬度: 44-46-10N, 经度: 106-58-08W, 海拔: 1225米

当前天气观测

该预报发布于15分钟前的19:53 UTC
风速15节,风向北转西北,有时为20节阵风
温度 11°C
湿度 40%
气压 1025 hPa
能見度: 16.1公里
天空无云

METAR: KSHR 311953Z AUTO 34015G20KT 10SM CLR 11/M02 A3028 RMK AO2 PK WND 33028/1856 SLP256 T01061022

时间: 14:08 (20:08 UTC)

预报

该预报发布于2小时和36分钟前的17:32 UTC
预报有效从31日的 18点(UTC)到 01日的 18点(UTC)
风速18节,风向北转西北,有时为25节阵风
能見度: 10公里
阴天层高于7000英尺
从 31日的 2200点(UTC)
风速15节,风向西北
能見度: 10公里
少量云层高于20000英尺
从 01日的 0200点(UTC)
风速3节,风向多变
能見度: 10公里
天空无云

TAF: KSHR 311732Z 3118/0118 33018G25KT P6SM OVC070 FM312200 32015KT P6SM FEW200 FM010200 VRB03KT P6SM SKC

超过4000个机场的气象观测和天气预报(METAR&TAF报告)。

可查询的气象台以黄色和红色小点在地图上表示。

将鼠标移到小点上方,可查看气象台名称。

然后点击查看天气观测和预报。

如需切换地图:点击带黑十字的绿色按钮放大地图;点击带横线的绿色按钮缩小地图;或者点击绿色箭头查看邻近地区的地图。


METAR-TAF: